• Join FlightAware (Why Join?)
  • Login
  • US Flag 
12:42AM EDT


 

Airport Tracker/Info


-or-


 

Live Flight TrackerFlight Track Log ✈ AMF1026 ✈ 18-Jun-2013 ✈ KALB - KCVG

Flight Track Log - Related Links

Times and Time Zones

All times are in EDT time to prevent confusion due to time zone crossing. See the AMF1026 flight status page for this flight to view local times or setup timezone preferences in your user account.

Time Position Orientation Groundspeed Altitude Reporting Facility
EDT Latitude Longitude Course Direction KTS MPH feet Rate Location/Type
08:48PM 42.7569 -73.8058 335° Northwest 117 135 900  Level Boston Center
08:49PM 42.7942 -73.8294 335° Northwest 185 213 1,900 1,260 Climbing Boston Center
08:50PM 42.7661 -73.9078 244° Southwest 226 260 3,400 1,140 Climbing Boston Center
08:51PM 42.7419 -73.9922 249° West 225 259 4,500 1,080 Climbing Boston Center
08:52PM 42.7367 -74.0739 265° West 226 260 5,800 1,380 Climbing Boston Center
08:53PM 42.7419 -74.1506 275° West 214 246 7,300 1,320 Climbing Boston Center
08:54PM 42.7447 -74.2297 273° West 209 241 8,500 960 Climbing Boston Center
08:55PM 42.7394 -74.3003 264° West 204 235 9,300 1,020 Climbing Boston Center
08:56PM 42.7153 -74.3731 246° West 199 229 10,600 1,140 Climbing Boston Center
08:57PM 42.6953 -74.4431 249° West 204 235 11,600 660 Climbing Boston Center
08:58PM 42.6753 -74.5131 249° West 199 229 12,000 180 Climbing Boston Center
08:59PM 42.6531 -74.5911 249° West 220 253 12,000  Level Boston Center
09:00PM 42.6308 -74.6694 249° West 234 269 12,000  Level Boston Center
09:01PM 42.6103 -74.7533 252° West 234 269 12,000  Level Boston Center
09:02PM 42.5897 -74.8431 253° West 242 278 12,000  Level Boston Center
09:03PM 42.5650 -74.9264 248° West 247 284 12,000 -60 Level Boston Center
09:04PM 42.5422 -75.0103 250° West 247 284 11,900  Descending Boston Center
09:05PM 42.5217 -75.0856 250° West 247 284 12,000  Climbing Boston Center
09:07PM 42.4772 -75.2097 244° Southwest 248 285 12,000 -60 Level New York Center
09:08PM 42.4472 -75.2892 243° Southwest 243 280 11,900 -60 Descending New York Center
09:09PM 42.4192 -75.3686 244° Southwest 243 280 11,900  Level New York Center
09:10PM 42.3892 -75.4478 243° Southwest 243 280 11,900  Level New York Center
09:11PM 42.3608 -75.5328 246° West 243 280 11,900  Level New York Center
09:12PM 42.3325 -75.6150 245° Southwest 243 280 11,900  Level New York Center
09:13PM 42.3019 -75.6967 243° Southwest 243 280 11,900  Level New York Center
09:14PM 42.2739 -75.7758 244° Southwest 243 280 11,900  Level New York Center
09:15PM 42.2475 -75.8581 247° West 243 280 11,900  Level New York Center
09:16PM 42.2208 -75.9456 248° West 248 285 11,900  Level New York Center
09:17PM 42.1944 -76.0244 246° West 248 285 11,900  Level New York Center
09:18PM 42.1656 -76.1089 245° Southwest 248 285 11,900  Level New York Center
09:19PM 42.1389 -76.1936 247° West 248 285 11,900  Level New York Center
09:20PM 42.1144 -76.2753 248° West 248 285 11,900  Level New York Center
09:21PM 42.0856 -76.3597 245° Southwest 248 285 11,900  Level New York Center
09:22PM 42.0589 -76.4383 245° Southwest 248 285 11,900  Level New York Center
09:23PM 42.0319 -76.5225 247° West 248 285 11,900  Level New York Center
09:24PM 41.9811 -76.6778 246° West 255 293 11,900  Level Cleveland Center
09:25PM 41.9528 -76.7606 245° Southwest 250 288 11,900  Level Cleveland Center
09:26PM 41.9261 -76.8375 245° Southwest 240 276 11,900  Level Cleveland Center
09:27PM 41.8975 -76.9200 245° Southwest 240 276 11,900  Level Cleveland Center
09:28PM 41.8667 -77.0000 243° Southwest 240 276 11,900  Level Cleveland Center
09:29PM 41.8358 -77.0825 243° Southwest 240 276 11,900  Level Cleveland Center
09:30PM 41.8069 -77.1647 245° Southwest 245 282 11,900  Level Cleveland Center
09:31PM 41.7800 -77.2442 246° West 245 282 11,900  Level Cleveland Center
09:32PM 41.7533 -77.3264 247° West 245 282 11,900  Level Cleveland Center
09:33PM 41.7242 -77.4058 244° Southwest 245 282 11,900  Level Cleveland Center
09:34PM 41.6931 -77.4881 243° Southwest 245 282 11,900  Level Cleveland Center
09:35PM 41.6639 -77.5644 243° Southwest 250 288 11,900  Level Cleveland Center
09:36PM 41.6347 -77.6436 244° Southwest 245 282 11,900  Level Cleveland Center
09:37PM 41.6056 -77.7256 245° Southwest 245 282 11,900  Level Cleveland Center
09:38PM 41.5783 -77.8100 247° West 245 282 11,900  Level Cleveland Center
09:39PM 41.5469 -77.8889 242° Southwest 245 282 11,900  Level Cleveland Center
09:40PM 41.5175 -77.9736 245° Southwest 245 282 11,900  Level Cleveland Center
09:41PM 41.4903 -78.0550 246° West 245 282 11,900  Level Cleveland Center
09:42PM 41.4650 -78.1364 248° West 239 275 11,900  Level Cleveland Center
09:43PM 41.4394 -78.2203 248° West 239 275 11,900  Level Cleveland Center
09:44PM 41.4142 -78.3044 248° West 239 275 11,900  Level Cleveland Center
09:45PM 41.3889 -78.3939 249° West 239 275 11,900  Level Cleveland Center
09:46PM 41.3672 -78.4719 250° West 244 281 11,900  Level Cleveland Center
09:47PM 41.3417 -78.5531 247° West 244 281 11,900  Level Cleveland Center
09:48PM 41.3161 -78.6397 249° West 244 281 11,900  Level Cleveland Center
09:49PM 41.2903 -78.7206 247° West 244 281 11,900  Level Cleveland Center
09:50PM 41.2644 -78.8042 248° West 244 281 11,900  Level Cleveland Center
09:51PM 41.2408 -78.8878 249° West 249 287 11,900  Level Cleveland Center
09:52PM 41.2108 -78.9767 246° West 249 287 11,900  Level Cleveland Center
09:53PM 41.1867 -79.0492 246° West 249 287 11,900  Level Cleveland Center
09:54PM 41.1628 -79.1350 250° West 249 287 11,900  Level Cleveland Center
09:55PM 41.1389 -79.2183 249° West 254 292 11,900  Level Cleveland Center
09:56PM 41.1150 -79.3069 250° West 254 292 11,900  Level Cleveland Center
09:57PM 41.0908 -79.3875 248° West 254 292 11,900  Level Cleveland Center
09:58PM 41.0644 -79.4706 247° West 254 292 11,900  Level Cleveland Center
09:59PM 41.0422 -79.5536 250° West 254 292 11,900  Level Cleveland Center
10:00PM 41.0158 -79.6336 246° West 254 292 11,900  Level Cleveland Center
10:01PM 40.9894 -79.7167 247° West 254 292 11,900  Level Cleveland Center
10:02PM 40.9608 -79.7967 245° Southwest 254 292 11,900  Level Cleveland Center
10:03PM 40.9342 -79.8767 246° West 254 292 11,900  Level Cleveland Center
10:04PM 40.9078 -79.9567 246° West 249 287 11,900  Level Cleveland Center
10:05PM 40.8789 -80.0394 245° Southwest 249 287 11,900  Level Cleveland Center
10:06PM 40.8500 -80.1192 244° Southwest 249 287 11,900  Level Cleveland Center
10:07PM 40.8233 -80.1989 246° West 244 281 11,900  Level Cleveland Center
10:08PM 40.7839 -80.2814 238° Southwest 244 281 11,900  Level Cleveland Center
10:09PM 40.7528 -80.3392 235° Southwest 244 281 11,900  Level Cleveland Center
10:10PM 40.7111 -80.4242 237° Southwest 244 281 11,900  Level Cleveland Center
10:11PM 40.6717 -80.4983 235° Southwest 244 281 11,900  Level Cleveland Center
10:12PM 40.6322 -80.5694 234° Southwest 244 281 11,900  Level Cleveland Center
10:13PM 40.5986 -80.6350 236° Southwest 244 281 11,900  Level Cleveland Center
10:14PM 40.5550 -80.7117 233° Southwest 244 281 11,900  Level Cleveland Center
10:15PM 40.5111 -80.7933 235° Southwest 249 287 11,900  Level Cleveland Center
10:16PM 40.4733 -80.8669 236° Southwest 249 287 11,900  Level Cleveland Center
10:17PM 40.4356 -80.9406 236° Southwest 249 287 11,900  Level Cleveland Center
10:18PM 40.3958 -81.0139 235° Southwest 249 287 11,900  Level Cleveland Center
10:19PM 40.3578 -81.0844 235° Southwest 249 287 12,000  Climbing Cleveland Center
10:20PM 40.3200 -81.1603 237° Southwest 249 287 12,000  Level Cleveland Center
10:21PM 40.2819 -81.2364 237° Southwest 254 292 12,000 -60 Level Cleveland Center
10:23PM 40.2256 -81.3411 235° Southwest 247 284 11,900 -60 Descending Indianapolis Center
10:24PM 40.1864 -81.4169 236° Southwest 247 284 11,900  Level Indianapolis Center
10:25PM 40.1456 -81.4944 235° Southwest 253 291 11,900  Level Indianapolis Center
10:26PM 40.1089 -81.5747 239° Southwest 254 292 11,900  Level Indianapolis Center
10:27PM 40.0822 -81.6614 248° West 254 292 11,900  Level Indianapolis Center
10:28PM 40.0517 -81.7600 248° West 251 289 11,900  Level Indianapolis Center
10:29PM 40.0261 -81.8447 249° West 252 290 11,900  Level Indianapolis Center
10:30PM 39.9997 -81.9294 248° West 249 287 11,900  Level Indianapolis Center
10:31PM 39.9747 -82.0139 249° West 249 287 11,900  Level Indianapolis Center
10:32PM 39.9467 -82.0972 246° West 250 288 11,900  Level Indianapolis Center
10:33PM 39.9192 -82.1783 246° West 246 283 11,900  Level Indianapolis Center
10:34PM 39.8928 -82.2611 247° West 247 284 11,900  Level Indianapolis Center
10:35PM 39.8639 -82.3422 245° Southwest 245 282 11,900  Level Indianapolis Center
10:36PM 39.8367 -82.4244 247° West 246 283 11,900  Level Indianapolis Center
10:37PM 39.8100 -82.5072 247° West 247 284 11,900  Level Indianapolis Center
10:38PM 39.7819 -82.5886 246° West 245 282 11,900  Level Indianapolis Center
10:39PM 39.7531 -82.6700 245° Southwest 247 284 11,900  Level Indianapolis Center
10:40PM 39.7236 -82.7514 245° Southwest 248 285 11,900  Level Indianapolis Center
10:41PM 39.6950 -82.8333 246° West 248 285 11,900  Level Indianapolis Center
10:42PM 39.6672 -82.9158 246° West 248 285 11,900  Level Indianapolis Center
10:43PM 39.6372 -82.9972 244° Southwest 248 285 11,900  Level Indianapolis Center
10:44PM 39.6078 -83.0794 245° Southwest 248 285 11,900  Level Indianapolis Center
10:45PM 39.5772 -83.1594 244° Southwest 246 283 11,900  Level Indianapolis Center
10:46PM 39.5492 -83.2422 246° West 247 284 11,900  Level Indianapolis Center
10:47PM 39.5203 -83.3250 246° West 248 285 11,900  Level Indianapolis Center
10:48PM 39.4917 -83.4058 245° Southwest 246 283 11,900 -360 Level Indianapolis Center
10:49PM 39.4564 -83.5047 245° Southwest 255 293 11,200 -480 Descending Indianapolis Center
10:50PM 39.4258 -83.5886 245° Southwest 256 295 11,000 -120 Descending Indianapolis Center
10:51PM 39.3969 -83.6717 246° West 250 288 11,000  Level Indianapolis Center
10:52PM 39.3675 -83.7514 244° Southwest 243 280 11,000  Level Indianapolis Center
10:53PM 39.3378 -83.8336 245° Southwest 249 287 11,000  Level Indianapolis Center
10:54PM 39.3075 -83.9133 244° Southwest 246 283 11,000  Level Indianapolis Center
10:55PM 39.2778 -83.9964 245° Southwest 250 288 11,000 -600 Level Indianapolis Center
10:56PM 39.2478 -84.0831 246° West 259 298 9,900 -1,140 Descending Indianapolis Center
10:57PM 39.2147 -84.1764 245° Southwest 281 323 8,700 -1,080 Descending Indianapolis Center
10:58PM 39.1825 -84.2733 247° West 289 333 7,700 -840 Descending Indianapolis Center
11:00PM 39.1558 -84.3619 249° West 269 310 7,000 -780 Descending Indianapolis Center
11:01PM 39.1333 -84.4433 250° West 247 284 6,200 -1,140 Descending Indianapolis Center
11:02PM 39.1206 -84.5233 258° West 231 266 4,800 -1,200 Descending Indianapolis Center
11:03PM 39.1178 -84.6011 267° West 221 254 3,800 -1,320 Descending Indianapolis Center
11:04PM 39.1167 -84.6500 268° West 155 178 2,300 -1,320 Descending Cincinnati TRACON
11:05PM 39.0833 -84.6833 218° Southwest 140 161 1,300 -1,020 Descending Cincinnati TRACON
11:06PM 39.0488 -84.6678 247° West  Level Estimated
11:13PM 39.0488 -84.6678 247° West  Level Estimated